Time;durP1;ratioP1;P1;durP2;ratioP2;P2;SDS_P1;SDS_P2;PMS_P1;PMS_P2;Temp;Humidity;BMP_temperature;BMP_pressure;BME280_temperature;BME280_humidity;BME280_pressure;Samples;Min_cycle;Max_cycle;Signal;HPM_P1;HPM_P2
2022/07/02 00:00:51;;;;;;;7.38;3.30;;;;;;;17.51;70.40;102057.66;4935801;29;20040;-48
2022/07/02 00:03:36;;;;;;;8.73;2.88;;;;;;;17.52;70.58;102059.31;4919955;29;20043;-48
2022/07/02 00:06:05;;;;;;;4.93;2.72;;;;;;;17.53;70.58;102049.94;4920486;29;20051;-48
2022/07/02 00:08:34;;;;;;;8.63;3.20;;;;;;;17.54;70.31;102041.41;4935887;29;20068;-48
2022/07/02 00:11:05;;;;;;;4.88;2.67;;;;;;;17.54;70.15;102051.59;4949906;28;20066;-48
2022/07/02 00:13:32;;;;;;;7.70;3.70;;;;;;;17.53;70.45;102044.41;4938172;29;20048;-48
2022/07/02 00:16:00;;;;;;;5.75;3.50;;;;;;;17.52;70.38;102054.63;4920176;29;20044;-49
2022/07/02 00:18:30;;;;;;;6.13;3.17;;;;;;;17.53;70.14;102060.97;4919320;29;20048;-48
2022/07/02 00:20:58;;;;;;;7.38;3.13;;;;;;;17.50;70.11;102056.84;4903696;29;20048;-47
2022/07/02 00:23:25;;;;;;;8.13;3.00;;;;;;;17.48;70.24;102058.22;4936738;29;20051;-49
2022/07/02 00:25:57;;;;;;;7.53;2.78;;;;;;;17.38;70.51;102059.94;4936738;29;20043;-47
2022/07/02 00:28:25;;;;;;;8.68;3.08;;;;;;;17.31;70.74;102058.59;4918777;29;20508;-48
2022/07/02 00:30:53;;;;;;;9.98;2.92;;;;;;;17.23;71.08;102057.28;4934746;29;20056;-47
2022/07/02 00:33:24;;;;;;;7.32;2.85;;;;;;;17.16;71.40;102054.00;4930062;29;20205;-50
2022/07/02 00:35:51;;;;;;;6.50;2.70;;;;;;;17.09;71.94;102053.47;4922602;29;20096;-50
2022/07/02 00:38:19;;;;;;;5.18;2.90;;;;;;;17.06;72.19;102051.28;4923739;29;20039;-49
2022/07/02 00:40:47;;;;;;;6.85;2.65;;;;;;;17.07;72.47;102056.50;4934729;29;20048;-51
2022/07/02 00:43:15;;;;;;;7.50;3.05;;;;;;;17.04;72.28;102060.63;4919952;29;20039;-50
2022/07/02 00:45:43;;;;;;;6.70;3.00;;;;;;;17.03;71.94;102055.44;4935485;29;20043;-51
2022/07/02 00:48:15;;;;;;;6.55;2.88;;;;;;;16.96;72.05;102057.66;4936068;29;20043;-48
2022/07/02 00:50:43;;;;;;;7.90;3.05;;;;;;;16.90;72.41;102048.59;4950385;29;20521;-51
2022/07/02 00:53:11;;;;;;;8.90;2.85;;;;;;;16.90;72.16;102054.09;4938412;29;20051;-48
2022/07/02 00:55:38;;;;;;;8.15;3.00;;;;;;;16.81;72.47;102051.09;4936337;29;20044;-48
2022/07/02 00:58:06;;;;;;;6.07;3.03;;;;;;;16.73;72.79;102048.06;4935864;29;20036;-49
2022/07/02 01:00:34;;;;;;;8.38;2.85;;;;;;;16.67;73.01;102047.25;4935490;29;20410;-48
2022/07/02 01:03:02;;;;;;;9.18;3.00;;;;;;;16.66;73.32;102053.03;4908767;29;20506;-46
2022/07/02 01:05:29;;;;;;;4.47;2.60;;;;;;;16.63;73.15;102039.84;4925932;29;20052;-50
2022/07/02 01:10:45;;;;;;;12.07;3.90;;;;;;;16.51;73.72;102032.69;4947755;29;20422;-49
2022/07/02 01:13:14;;;;;;;9.52;4.05;;;;;;;16.50;74.11;102039.31;4938167;29;20062;-49
2022/07/02 01:15:41;;;;;;;7.15;3.83;;;;;;;16.50;73.75;102042.06;4925585;29;20051;-49
2022/07/02 01:18:10;;;;;;;7.40;4.13;;;;;;;16.52;74.13;102034.34;4917953;29;20043;-48
2022/07/02 01:20:38;;;;;;;8.45;3.97;;;;;;;16.53;73.45;102033.25;4934430;29;20036;-49
2022/07/02 01:23:06;;;;;;;8.52;3.80;;;;;;;16.55;73.32;102036.56;4941982;29;20039;-49
2022/07/02 01:25:34;;;;;;;6.20;3.10;;;;;;;16.57;73.46;102037.09;4931076;29;20104;-48
2022/07/02 01:28:01;;;;;;;6.35;3.17;;;;;;;16.56;73.03;102037.38;4935448;29;20044;-48
2022/07/02 01:30:29;;;;;;;6.20;3.15;;;;;;;16.58;73.06;102041.50;4935270;29;20494;-47
2022/07/02 01:32:57;;;;;;;5.57;3.20;;;;;;;16.57;73.16;102039.00;4939776;29;20066;-48
2022/07/02 01:35:25;;;;;;;7.55;3.28;;;;;;;16.55;72.76;102042.06;4936456;29;20039;-48
2022/07/02 01:37:53;;;;;;;8.85;3.25;;;;;;;16.52;72.89;102041.78;4938960;29;20070;-49
2022/07/02 01:40:21;;;;;;;7.22;3.08;;;;;;;16.51;73.17;102043.72;4938765;29;20091;-49
2022/07/02 01:42:48;;;;;;;6.90;3.10;;;;;;;16.53;72.79;102038.75;4940529;29;20047;-47
2022/07/02 01:45:16;;;;;;;7.78;2.90;;;;;;;16.56;72.81;102040.13;4921388;29;20102;-48
2022/07/02 01:47:44;;;;;;;9.18;3.08;;;;;;;16.59;72.59;102047.81;4921973;29;20435;-46
2022/07/02 01:50:12;;;;;;;9.93;3.35;;;;;;;16.61;72.43;102043.69;4938410;29;20451;-49
2022/07/02 01:52:40;;;;;;;8.95;2.80;;;;;;;16.61;72.00;102040.94;4929065;29;20047;-48
2022/07/02 01:55:08;;;;;;;9.30;3.78;;;;;;;16.64;71.99;102035.97;4940879;29;20051;-50
2022/07/02 01:57:36;;;;;;;6.10;2.85;;;;;;;16.60;72.20;102036.53;4941931;29;20098;-47
2022/07/02 02:00:09;;;;;;;5.53;3.00;;;;;;;16.58;72.46;102036.00;4921514;29;20051;-50
2022/07/02 02:02:37;;;;;;;7.63;2.90;;;;;;;16.54;72.40;102036.81;4940516;29;20039;-50
2022/07/02 02:05:05;;;;;;;7.10;2.80;;;;;;;16.49;72.17;102037.66;4926168;29;20094;-54
2022/07/02 02:07:33;;;;;;;5.53;2.90;;;;;;;16.47;73.24;102033.53;4925746;29;20051;-50
2022/07/02 02:10:00;;;;;;;5.15;2.80;;;;;;;16.49;73.16;102029.41;4937696;29;20048;-51
2022/07/02 02:12:28;;;;;;;6.40;2.97;;;;;;;16.47;73.15;102031.59;4921473;29;20487;-50
2022/07/02 02:14:56;;;;;;;10.68;3.33;;;;;;;16.45;72.97;102036.59;4937224;29;20039;-50
2022/07/02 02:17:23;;;;;;;7.93;3.28;;;;;;;16.44;73.18;102034.09;4921352;29;20087;-50
2022/07/02 02:19:51;;;;;;;6.43;3.08;;;;;;;16.45;73.13;102039.34;4937629;29;20467;-54
2022/07/02 02:22:19;;;;;;;8.52;3.58;;;;;;;16.39;73.33;102037.69;4940976;29;20047;-53
2022/07/02 02:24:47;;;;;;;9.48;3.50;;;;;;;16.37;73.36;102037.94;4939011;29;20047;-49
2022/07/02 02:27:14;;;;;;;7.95;3.40;;;;;;;16.34;73.72;102035.75;4938243;29;20099;-54
2022/07/02 02:29:42;;;;;;;8.93;3.58;;;;;;;16.36;73.67;102038.25;4919442;29;20040;-52
2022/07/02 02:32:10;;;;;;;10.27;3.53;;;;;;;16.33;73.32;102033.28;4937801;29;20044;-51
2022/07/02 02:34:38;;;;;;;10.45;3.97;;;;;;;16.27;73.79;102034.41;4939886;29;20044;-51
2022/07/02 02:37:06;;;;;;;9.30;3.80;;;;;;;16.25;74.16;102044.84;4937765;29;20043;-52
2022/07/02 02:39:34;;;;;;;8.45;3.42;;;;;;;16.24;73.99;102040.47;4937198;29;20047;-48
2022/07/02 02:42:01;;;;;;;8.55;3.60;;;;;;;16.23;74.22;102028.59;4937340;29;20415;-50
2022/07/02 02:44:29;;;;;;;10.45;3.58;;;;;;;16.25;73.93;102034.66;4923968;29;20047;-49
2022/07/02 02:46:57;;;;;;;11.95;3.72;;;;;;;16.30;73.50;102033.84;4938126;29;20047;-49
2022/07/02 02:49:24;;;;;;;9.80;3.25;;;;;;;16.26;73.46;102038.22;4936629;29;20039;-49
2022/07/02 02:51:52;;;;;;;7.82;3.58;;;;;;;16.18;74.05;102043.19;4930132;29;20080;-48
2022/07/02 02:54:20;;;;;;;8.50;3.58;;;;;;;16.18;73.82;102042.38;4938497;29;20091;-49
2022/07/02 02:56:47;;;;;;;7.78;3.22;;;;;;;16.17;74.02;102038.81;4937498;29;20102;-51
2022/07/02 02:59:15;;;;;;;8.23;3.53;;;;;;;16.19;73.75;102042.09;4934924;29;20070;-46
2022/07/02 03:01:43;;;;;;;10.25;3.83;;;;;;;16.18;73.58;102045.94;4937178;29;20047;-49
2022/07/02 03:04:10;;;;;;;9.05;3.97;;;;;;;16.15;74.09;102049.25;4939507;29;20447;-48
2022/07/02 03:06:38;;;;;;;9.65;3.60;;;;;;;16.18;74.15;102054.19;4927982;29;20050;-49
2022/07/02 03:09:06;;;;;;;10.63;3.83;;;;;;;16.21;73.61;102057.50;4937273;29;20043;-48
2022/07/02 03:11:34;;;;;;;7.80;3.45;;;;;;;16.23;73.47;102055.28;4937488;29;20095;-49
2022/07/02 03:14:01;;;;;;;9.77;3.63;;;;;;;16.26;73.33;102055.59;4937489;29;20051;-51
2022/07/02 03:16:29;;;;;;;9.43;3.30;;;;;;;16.28;73.48;102055.28;4936575;29;20040;-47
2022/07/02 03:18:57;;;;;;;7.35;3.58;;;;;;;16.28;73.11;102058.84;4936665;29;20048;-48
2022/07/02 03:21:24;;;;;;;8.70;3.65;;;;;;;16.29;72.50;102059.69;4920151;29;20043;-49
2022/07/02 03:23:52;;;;;;;7.22;3.15;;;;;;;16.26;72.68;102065.72;4920607;29;20035;-51
2022/07/02 03:26:20;;;;;;;8.75;3.55;;;;;;;16.11;72.62;102064.63;4937150;29;20432;-51
2022/07/02 03:28:47;;;;;;;9.00;3.00;;;;;;;16.02;73.07;102068.22;4935054;29;20036;-49
2022/07/02 03:31:15;;;;;;;8.15;3.10;;;;;;;15.98;73.43;102065.19;4936824;29;20043;-49
2022/07/02 03:33:43;;;;;;;8.25;3.42;;;;;;;16.00;73.21;102070.44;4936415;29;20129;-47
2022/07/02 03:36:11;;;;;;;11.43;3.75;;;;;;;15.98;73.80;102076.19;4952076;28;20051;-53
2022/07/02 03:38:39;;;;;;;10.93;3.35;;;;;;;15.98;73.50;102076.19;4936686;29;20051;-50
2022/07/02 03:41:08;;;;;;;8.13;3.20;;;;;;;16.01;73.78;102075.63;4936038;29;20518;-49
2022/07/02 03:43:35;;;;;;;7.68;3.40;;;;;;;16.03;73.30;102069.88;4936760;29;20051;-52
2022/07/02 03:46:03;;;;;;;9.80;3.20;;;;;;;16.05;73.30;102070.44;4952161;28;20165;-49
2022/07/02 03:48:31;;;;;;;10.80;3.33;;;;;;;16.06;73.08;102072.88;4920602;29;20040;-51
2022/07/02 03:50:59;;;;;;;8.40;3.30;;;;;;;16.06;73.26;102072.88;4939769;29;20058;-50
2022/07/02 03:53:26;;;;;;;5.88;2.78;;;;;;;16.06;73.21;102078.38;4919392;29;20051;-49
2022/07/02 03:55:54;;;;;;;8.30;3.10;;;;;;;16.08;73.18;102076.19;4937149;29;20070;-51
2022/07/02 03:58:22;;;;;;;7.82;2.90;;;;;;;16.09;73.31;102083.34;4919101;29;20039;-53
2022/07/02 04:00:49;;;;;;;8.10;3.00;;;;;;;16.11;72.76;102074.81;4936910;29;20044;-53
2022/07/02 04:03:17;;;;;;;8.73;3.30;;;;;;;16.12;73.21;102077.31;4935251;29;20044;-52
2022/07/02 04:05:45;;;;;;;5.93;3.00;;;;;;;16.08;73.09;102076.19;4936674;29;20510;-55
2022/07/02 04:08:17;;;;;;;9.18;3.30;;;;;;;16.07;73.28;102073.75;4935342;29;20098;-53
2022/07/02 04:10:45;;;;;;;8.00;3.15;;;;;;;16.08;73.35;102078.94;4934269;29;20122;-51
2022/07/02 04:13:13;;;;;;;8.20;3.47;;;;;;;16.05;73.05;102079.50;4934362;29;20048;-50
2022/07/02 04:15:40;;;;;;;9.82;3.65;;;;;;;16.04;73.26;102082.50;4940056;29;20534;-51
2022/07/02 04:18:08;;;;;;;8.90;3.35;;;;;;;16.04;73.33;102086.06;4939848;29;20087;-55
2022/07/02 04:20:36;;;;;;;6.72;2.97;;;;;;;16.02;73.52;102080.06;4933760;29;20451;-55
2022/07/02 04:23:03;;;;;;;8.88;3.38;;;;;;;16.04;73.57;102072.31;4934842;29;20440;-55
2022/07/02 04:25:31;;;;;;;5.50;2.60;;;;;;;16.04;73.18;102085.25;4936104;29;20164;-55
2022/07/02 04:27:59;;;;;;;7.55;3.17;;;;;;;16.02;73.45;102088.31;4939047;29;20044;-51
2022/07/02 04:30:27;;;;;;;5.78;2.97;;;;;;;16.03;73.68;102086.38;4933693;29;20400;-47
2022/07/02 04:32:55;;;;;;;8.32;3.08;;;;;;;16.06;73.71;102094.06;4935994;29;20044;-47
2022/07/02 04:35:22;;;;;;;9.52;3.00;;;;;;;16.09;73.07;102088.84;4918529;29;20526;-48
2022/07/02 04:37:50;;;;;;;8.85;3.28;;;;;;;16.10;73.43;102085.00;4935976;29;20114;-48
2022/07/02 04:40:17;;;;;;;8.10;3.40;;;;;;;16.09;73.26;102086.09;4936665;29;20451;-46
2022/07/02 04:42:45;;;;;;;7.15;3.17;;;;;;;16.03;72.85;102089.94;4934965;29;20523;-48
2022/07/02 04:45:13;;;;;;;7.45;2.92;;;;;;;15.96;73.63;102084.69;4936634;29;20429;-47
2022/07/02 04:47:41;;;;;;;6.68;3.25;;;;;;;15.95;73.84;102093.25;4935674;29;20044;-49
2022/07/02 04:50:08;;;;;;;8.38;3.50;;;;;;;15.96;73.41;102092.94;4918161;29;20099;-47
2022/07/02 04:52:36;;;;;;;8.32;3.20;;;;;;;15.99;73.51;102094.31;4936490;29;20156;-49
2022/07/02 04:55:04;;;;;;;8.80;2.95;;;;;;;16.02;73.90;102091.06;4942225;29;20051;-48
2022/07/02 04:57:32;;;;;;;7.90;3.22;;;;;;;16.09;73.72;102086.09;4918191;29;20107;-48
2022/07/02 04:59:59;;;;;;;8.55;2.80;;;;;;;16.12;73.51;102082.81;4918813;29;20051;-48
2022/07/02 05:02:27;;;;;;;6.63;2.90;;;;;;;16.15;73.16;102082.25;4919449;29;20048;-47
2022/07/02 05:04:55;;;;;;;9.57;3.00;;;;;;;16.20;72.76;102089.66;4936261;29;20040;-48
2022/07/02 05:07:23;;;;;;;8.45;2.97;;;;;;;16.26;73.06;102084.97;4935069;29;20462;-49
2022/07/02 05:09:59;;;;;;;8.07;3.00;;;;;;;16.24;72.64;102088.03;4251901;29;10000025;-49
2022/07/02 05:12:27;;;;;;;8.23;3.13;;;;;;;16.28;72.52;102086.34;4921970;29;20070;-50
2022/07/02 05:14:55;;;;;;;8.05;2.78;;;;;;;16.32;71.91;102086.66;4938596;29;20039;-49
2022/07/02 05:17:22;;;;;;;8.25;3.10;;;;;;;16.34;72.08;102089.94;4935663;29;20059;-48
2022/07/02 05:19:50;;;;;;;7.72;3.00;;;;;;;16.35;71.98;102086.91;4918722;29;20043;-48
2022/07/02 05:22:18;;;;;;;6.88;2.70;;;;;;;16.38;72.39;102088.31;4955551;28;20070;-49
2022/07/02 05:24:45;;;;;;;8.40;3.08;;;;;;;16.42;72.20;102083.06;4934777;29;20059;-49
2022/07/02 05:27:13;;;;;;;4.63;2.72;;;;;;;16.42;71.54;102085.81;4935553;29;20064;-47
2022/07/02 05:29:41;;;;;;;7.63;3.00;;;;;;;16.43;71.74;102082.78;4918595;29;20040;-55
2022/07/02 05:32:15;;;;;;;6.82;3.20;;;;;;;16.44;72.07;102087.19;4938989;29;20470;-51
2022/07/02 05:34:43;;;;;;;5.88;3.00;;;;;;;16.48;72.35;102081.97;4918172;29;20048;-50
2022/07/02 05:37:10;;;;;;;7.50;2.90;;;;;;;16.51;72.77;102095.16;4918643;29;20043;-50
2022/07/02 05:39:38;;;;;;;9.52;3.00;;;;;;;16.50;71.97;102094.34;4935180;29;20051;-50
2022/07/02 05:42:06;;;;;;;9.55;3.35;;;;;;;16.54;72.46;102100.09;4940632;29;20044;-49
2022/07/02 05:44:34;;;;;;;16.77;5.07;;;;;;;16.60;72.79;102096.25;4929400;29;20458;-49
2022/07/02 05:47:01;;;;;;;16.15;4.30;;;;;;;16.67;72.71;102104.19;4935144;29;20048;-49
2022/07/02 05:49:29;;;;;;;15.55;4.80;;;;;;;16.68;71.77;102101.19;4934889;29;20052;-49
2022/07/02 05:51:57;;;;;;;12.25;3.63;;;;;;;16.67;71.05;102106.97;4935806;29;20048;-51
2022/07/02 05:54:24;;;;;;;12.20;3.65;;;;;;;16.70;70.98;102110.00;4935594;29;20063;-48
2022/07/02 05:56:52;;;;;;;11.07;4.10;;;;;;;16.73;71.33;102111.38;4936795;29;20647;-50
2022/07/02 05:59:22;;;;;;;9.98;3.53;;;;;;;16.76;71.51;102105.28;4945752;29;20577;-50
2022/07/02 06:01:50;;;;;;;5.88;2.80;;;;;;;16.78;70.58;102109.44;4942511;29;20073;-49
2022/07/02 06:04:18;;;;;;;7.03;2.50;;;;;;;16.80;70.60;102101.75;4938353;29;20094;-46
2022/07/02 06:09:32;;;;;;;6.88;2.90;;;;;;;16.86;70.90;102101.72;4938141;29;20044;-47
2022/07/02 06:12:00;;;;;;;8.20;2.60;;;;;;;16.88;70.72;102094.00;4946188;29;20110;-48
2022/07/02 06:14:28;;;;;;;6.43;2.60;;;;;;;16.89;69.96;102099.25;4939246;29;20153;-50
2022/07/02 06:16:55;;;;;;;6.68;2.65;;;;;;;16.90;70.19;102100.88;4937502;29;20459;-52
2022/07/02 06:19:23;;;;;;;5.88;2.55;;;;;;;16.91;69.71;102102.56;4941161;29;20114;-48
2022/07/02 06:21:51;;;;;;;6.65;2.80;;;;;;;16.94;69.09;102103.94;4939160;29;20044;-52
2022/07/02 06:24:18;;;;;;;5.75;2.50;;;;;;;16.95;68.64;102109.13;4938004;29;20048;-52
2022/07/02 06:26:46;;;;;;;8.23;2.55;;;;;;;16.96;68.70;102107.22;4937613;29;20055;-51
2022/07/02 06:29:14;;;;;;;7.97;2.50;;;;;;;16.98;69.01;102111.34;4920586;29;20406;-49
2022/07/02 06:31:41;;;;;;;7.28;2.63;;;;;;;16.98;68.96;102111.34;4946503;29;20051;-49
2022/07/02 06:34:09;;;;;;;8.48;2.70;;;;;;;17.05;68.92;102111.03;4942996;29;20511;-49
2022/07/02 06:36:37;;;;;;;5.47;2.60;;;;;;;17.03;68.47;102118.78;4921219;29;20040;-49
2022/07/02 06:39:05;;;;;;;6.07;2.83;;;;;;;17.01;68.34;102121.78;4937370;29;20048;-50
2022/07/02 06:44:23;;;;;;;5.80;2.80;;;;;;;17.03;68.41;102127.84;4912370;29;20051;-51
2022/07/02 06:46:51;;;;;;;6.72;2.53;;;;;;;17.12;68.37;102127.25;4945480;29;20059;-48
2022/07/02 06:49:19;;;;;;;6.32;2.78;;;;;;;17.09;67.53;102125.91;4920241;29;20051;-49
2022/07/02 06:51:46;;;;;;;7.18;2.58;;;;;;;17.09;67.79;102125.06;4942741;29;20059;-49
2022/07/02 06:54:14;;;;;;;7.05;2.47;;;;;;;17.13;68.14;102124.25;4936809;29;20063;-48
2022/07/02 06:56:43;;;;;;;7.00;2.35;;;;;;;17.20;67.84;102126.69;4938826;29;20044;-49
2022/07/02 06:59:10;;;;;;;5.50;2.35;;;;;;;17.23;67.67;102123.38;4937152;29;20043;-49
2022/07/02 07:01:38;;;;;;;7.18;2.80;;;;;;;17.26;66.31;102125.56;4936743;29;20039;-47
2022/07/02 07:04:28;;;;;;;6.03;2.58;;;;;;;17.26;64.20;102122.81;4937223;29;20443;-50
2022/07/02 07:06:56;;;;;;;6.05;2.35;;;;;;;17.29;64.70;102121.41;4937856;29;20043;-50
2022/07/02 07:09:25;;;;;;;7.03;2.58;;;;;;;17.35;65.50;102115.63;4921023;29;20040;-51
2022/07/02 07:11:52;;;;;;;5.22;2.22;;;;;;;17.38;65.78;102104.00;4920014;29;20059;-48
2022/07/02 07:14:21;;;;;;;4.85;2.58;;;;;;;17.41;64.32;102117.25;4936590;29;20049;-50
2022/07/02 07:16:49;;;;;;;6.90;2.53;;;;;;;17.43;63.54;102117.75;4922848;29;20047;-50
2022/07/02 07:19:17;;;;;;;7.22;2.80;;;;;;;17.44;63.76;102113.09;4936840;29;20043;-48
2022/07/02 07:21:44;;;;;;;5.63;2.20;;;;;;;17.45;63.25;102115.56;4936545;29;20047;-48
2022/07/02 07:24:12;;;;;;;5.25;2.08;;;;;;;17.50;63.90;102116.66;4951561;29;20052;-50
2022/07/02 07:26:40;;;;;;;5.25;2.80;;;;;;;17.53;63.81;102121.59;4946308;29;20479;-52
2022/07/02 07:29:08;;;;;;;5.28;2.45;;;;;;;17.52;61.67;102120.78;4921169;29;20051;-48
2022/07/02 07:31:36;;;;;;;8.02;3.10;;;;;;;17.52;60.84;102122.72;4936641;29;20050;-49
2022/07/02 07:34:04;;;;;;;4.53;1.92;;;;;;;17.53;60.72;102116.06;4936327;29;20122;-50
2022/07/02 07:36:32;;;;;;;4.32;1.58;;;;;;;17.56;61.30;102110.03;4942453;29;20050;-49
2022/07/02 07:39:02;;;;;;;6.15;1.90;;;;;;;17.67;63.08;102114.34;4938412;29;20542;-48
2022/07/02 07:41:30;;;;;;;2.47;1.67;;;;;;;17.71;62.85;102118.19;4936201;29;20051;-48
2022/07/02 07:43:57;;;;;;;7.40;2.20;;;;;;;17.76;62.34;102115.41;4920691;29;20049;-49
2022/07/02 07:46:25;;;;;;;6.15;2.20;;;;;;;17.75;59.40;102115.66;4943807;29;20047;-47
2022/07/02 07:48:53;;;;;;;5.80;2.63;;;;;;;17.75;59.75;102122.03;4923457;29;20094;-47
2022/07/02 07:51:21;;;;;;;3.83;1.83;;;;;;;17.76;59.35;102120.91;4936472;29;20103;-47
2022/07/02 07:53:49;;;;;;;5.22;2.08;;;;;;;17.77;59.13;102128.06;4937742;29;20051;-48
2022/07/02 07:56:18;;;;;;;7.30;2.50;;;;;;;17.82;60.62;102122.56;4937743;29;20087;-46
2022/07/02 07:58:46;;;;;;;23.02;6.10;;;;;;;17.83;60.96;102120.63;4936575;29;20043;-47
2022/07/02 08:01:14;;;;;;;19.58;5.95;;;;;;;17.90;60.81;102114.81;4919264;29;20054;-48
2022/07/02 08:03:42;;;;;;;15.63;4.15;;;;;;;17.98;59.97;102122.47;4950979;28;20047;-48
2022/07/02 08:06:09;;;;;;;6.30;1.90;;;;;;;17.97;58.40;102115.31;4936882;29;20471;-48
2022/07/02 08:08:37;;;;;;;15.02;4.35;;;;;;;18.02;59.91;102112.50;4936956;29;20043;-47
2022/07/02 08:11:07;;;;;;;7.28;2.17;;;;;;;18.01;57.64;102108.91;4935539;29;20055;-47
2022/07/02 08:13:34;;;;;;;15.80;3.65;;;;;;;18.10;58.97;102109.13;4950193;29;20511;-45
2022/07/02 08:16:03;;;;;;;9.57;2.28;;;;;;;18.13;57.48;102107.72;4941062;29;20043;-45
2022/07/02 08:18:32;;;;;;;8.40;2.28;;;;;;;18.12;56.58;102106.91;4922419;29;20056;-46
2022/07/02 08:21:00;;;;;;;5.55;1.85;;;;;;;18.13;57.04;102107.72;4936622;29;20051;-49
2022/07/02 08:23:28;;;;;;;5.25;1.80;;;;;;;18.14;57.16;102109.41;4918628;29;20047;-47
2022/07/02 08:25:56;;;;;;;8.80;2.45;;;;;;;18.16;57.35;102107.16;4942423;29;20043;-49
2022/07/02 08:28:24;;;;;;;6.70;2.58;;;;;;;18.18;57.36;102104.94;4941616;29;20062;-48
2022/07/02 08:30:52;;;;;;;11.10;3.35;;;;;;;18.24;58.80;102112.88;4935540;29;20048;-48
2022/07/02 08:33:20;;;;;;;10.05;3.42;;;;;;;18.30;58.01;102108.97;4938331;29;20043;-46
2022/07/02 08:35:49;;;;;;;24.90;13.60;;;;;;;18.40;58.60;102104.47;4937088;29;20551;-48
2022/07/02 08:38:16;;;;;;;11.68;5.85;;;;;;;18.44;57.64;102102.78;4935567;29;20058;-49
2022/07/02 08:40:45;;;;;;;11.75;4.00;;;;;;;18.48;58.42;102092.81;4935398;29;20526;-45
2022/07/02 08:43:14;;;;;;;10.45;3.67;;;;;;;18.52;58.55;102093.88;4935570;29;20078;-48
2022/07/02 08:45:43;;;;;;;8.05;2.58;;;;;;;18.53;57.46;102092.75;4921010;29;20047;-47
2022/07/02 08:48:11;;;;;;;16.83;4.47;;;;;;;18.53;59.11;102095.53;4939137;29;20047;-50
2022/07/02 08:50:40;;;;;;;8.68;2.92;;;;;;;18.55;58.26;102090.53;4906877;29;20059;-48
2022/07/02 08:53:08;;;;;;;9.50;3.42;;;;;;;18.55;58.23;102095.25;4921547;29;20039;-48
2022/07/02 08:55:36;;;;;;;6.57;1.75;;;;;;;18.53;57.38;102090.81;4940255;29;20043;-47
2022/07/02 08:58:06;;;;;;;5.15;1.75;;;;;;;18.55;56.94;102081.44;4940485;29;20055;-48
2022/07/02 09:00:34;;;;;;;7.05;2.08;;;;;;;18.58;57.84;102078.09;4939309;29;20122;-51
2022/07/02 09:03:03;;;;;;;9.20;2.85;;;;;;;18.64;58.41;102075.00;4922664;29;20044;-45
2022/07/02 09:05:31;;;;;;;5.78;2.25;;;;;;;18.66;55.90;102085.72;4923643;29;20055;-44
2022/07/02 09:07:59;;;;;;;5.78;1.88;;;;;;;18.74;56.41;102085.09;4922779;29;20047;-45
2022/07/02 09:10:27;;;;;;;5.00;1.65;;;;;;;18.77;55.87;102080.97;4939760;29;20055;-45
2022/07/02 09:12:55;;;;;;;8.73;2.88;;;;;;;18.89;56.04;102081.38;4922148;29;20057;-47
2022/07/02 09:15:24;;;;;;;3.78;1.77;;;;;;;18.91;55.05;102073.63;4927578;29;20054;-49
2022/07/02 09:17:52;;;;;;;5.55;1.60;;;;;;;18.93;54.97;102080.50;4930344;29;20043;-48
2022/07/02 09:20:20;;;;;;;5.57;2.08;;;;;;;18.96;55.39;102078.28;4938759;29;20515;-47
2022/07/02 09:22:49;;;;;;;13.73;3.83;;;;;;;19.03;57.94;102059.41;4961594;28;20043;-46
2022/07/02 09:25:21;;;;;;;6.05;2.58;;;;;;;19.06;55.93;102067.91;4950772;29;20058;-48
2022/07/02 09:28:03;;;;;;;5.78;2.22;;;;;;;19.09;57.35;102063.72;4938781;29;20419;-48
2022/07/02 09:30:37;;;;;;;4.05;1.70;;;;;;;19.10;56.30;102066.22;4938646;29;20047;-47
2022/07/02 09:33:28;;;;;;;5.07;1.95;;;;;;;19.14;55.24;102053.44;4938704;29;20051;-49
2022/07/02 09:35:57;;;;;;;5.18;1.55;;;;;;;19.16;55.42;102051.19;4939570;29;20043;-49
2022/07/02 09:38:24;;;;;;;8.95;2.33;;;;;;;19.20;56.29;102056.16;4921876;29;20056;-51
2022/07/02 09:40:57;;;;;;;6.18;2.28;;;;;;;19.23;55.66;102053.59;4921522;29;20503;-50
2022/07/02 09:43:32;;;;;;;5.72;2.10;;;;;;;19.24;55.60;102043.38;4922229;29;20048;-50
2022/07/02 09:46:01;;;;;;;6.78;2.13;;;;;;;19.28;56.11;102048.00;4950911;29;20040;-50
2022/07/02 09:48:30;;;;;;;6.75;2.13;;;;;;;19.36;55.17;102054.81;4939671;29;20050;-50
2022/07/02 09:51:04;;;;;;;5.95;1.92;;;;;;;19.41;54.49;102045.63;4938305;29;20376;-49
2022/07/02 09:53:32;;;;;;;4.28;1.80;;;;;;;19.40;54.99;102036.50;4938584;29;20050;-46
2022/07/02 09:56:03;;;;;;;4.18;1.90;;;;;;;19.45;55.04;102038.38;4954279;28;20499;-49
2022/07/02 09:58:31;;;;;;;5.07;2.22;;;;;;;19.46;55.97;102032.56;4938345;29;20044;-49
2022/07/02 10:01:02;;;;;;;7.30;2.92;;;;;;;19.48;55.88;102033.09;4939194;29;20510;-47
2022/07/02 10:03:30;;;;;;;4.07;2.03;;;;;;;19.51;55.14;102029.72;4921237;29;20056;-47
2022/07/02 10:05:58;;;;;;;5.40;2.20;;;;;;;19.54;55.83;102029.13;4939101;29;20056;-46
2022/07/02 10:08:26;;;;;;;4.63;1.95;;;;;;;19.58;54.55;102026.59;4937915;29;20051;-46
2022/07/02 10:10:54;;;;;;;6.47;2.42;;;;;;;19.57;54.85;102027.69;4921311;29;20063;-46
2022/07/02 10:13:22;;;;;;;4.90;2.10;;;;;;;19.56;55.04;102037.94;4934218;29;20078;-48
2022/07/02 10:16:04;;;;;;;5.57;2.13;;;;;;;19.65;53.74;102020.66;4938934;29;20050;-53
2022/07/02 10:18:33;;;;;;;7.43;2.00;;;;;;;19.72;53.76;102010.06;4922180;29;20044;-48
2022/07/02 10:21:03;;;;;;;10.38;2.25;;;;;;;19.78;54.46;102015.22;4921208;29;20422;-52
2022/07/02 10:23:31;;;;;;;4.95;2.40;;;;;;;19.84;54.10;102013.19;4940710;29;20051;-48
2022/07/02 10:25:59;;;;;;;4.55;1.65;;;;;;;19.89;52.30;102002.06;4931655;29;20042;-50
2022/07/02 10:28:26;;;;;;;3.33;1.70;;;;;;;19.97;52.37;102011.63;4927331;29;20052;-49
2022/07/02 10:30:55;;;;;;;3.60;2.13;;;;;;;20.08;53.83;102006.72;4938188;29;20509;-50
2022/07/02 10:33:41;;;;;;;7.50;2.42;;;;;;;20.19;55.57;102009.00;4937941;29;20047;-54
2022/07/02 10:36:12;;;;;;;5.38;2.40;;;;;;;20.26;52.37;102003.06;4932975;29;20046;-53
2022/07/02 10:38:40;;;;;;;6.82;2.80;;;;;;;20.25;50.83;101997.84;4906003;29;20039;-50
2022/07/02 10:41:09;;;;;;;7.18;2.58;;;;;;;20.28;50.07;102000.81;4937607;29;20047;-53
2022/07/02 10:43:40;;;;;;;4.07;1.88;;;;;;;20.34;52.05;101982.97;4920870;29;20067;-53
2022/07/02 10:46:09;;;;;;;4.47;1.55;;;;;;;20.38;52.09;101989.56;4921356;29;20042;-52
2022/07/02 10:48:52;;;;;;;7.53;2.60;;;;;;;20.39;53.25;101991.19;4920918;29;20106;-52
2022/07/02 10:51:23;;;;;;;6.10;1.80;;;;;;;20.41;49.59;101997.25;4947642;29;20044;-49
2022/07/02 10:53:53;;;;;;;3.03;1.70;;;;;;;20.39;49.35;101993.13;4937452;29;20048;-54
2022/07/02 10:56:21;;;;;;;5.40;1.98;;;;;;;20.38;51.70;101995.09;4922257;29;20079;-50
2022/07/02 10:58:49;;;;;;;3.40;1.60;;;;;;;20.36;49.63;101996.53;4929475;29;20035;-51
2022/07/02 11:01:23;;;;;;;3.47;1.77;;;;;;;20.36;49.62;101997.34;4932180;29;20048;-52
2022/07/02 11:04:02;;;;;;;3.28;1.65;;;;;;;20.37;48.99;101992.63;4920958;29;20495;-53
2022/07/02 11:06:34;;;;;;;3.25;1.70;;;;;;;20.38;50.71;101988.75;4921334;29;20069;-51
2022/07/02 11:09:03;;;;;;;5.45;1.95;;;;;;;20.47;49.67;101975.84;4920637;29;20102;-51
2022/07/02 11:11:40;;;;;;;5.40;1.92;;;;;;;20.58;49.20;101985.59;4936547;29;20064;-48
2022/07/02 11:14:12;;;;;;;5.63;1.90;;;;;;;20.70;49.11;101989.81;4937028;29;20043;-52
2022/07/02 11:16:49;;;;;;;3.60;1.45;;;;;;;20.82;49.17;101985.38;4941554;29;20457;-51
2022/07/02 11:19:28;;;;;;;4.88;1.60;;;;;;;20.93;49.51;101976.88;4920387;29;20042;-48
2022/07/02 11:22:02;;;;;;;3.05;1.20;;;;;;;20.96;47.18;101973.47;4919729;29;20055;-49
2022/07/02 11:24:31;;;;;;;5.40;1.55;;;;;;;21.00;47.30;101974.50;4920510;29;20052;-48
2022/07/02 11:27:00;;;;;;;3.92;1.42;;;;;;;21.00;47.10;101980.03;4937494;29;20059;-51
2022/07/02 11:29:28;;;;;;;1.92;1.30;;;;;;;20.98;48.96;101976.75;4920011;29;20522;-47
2022/07/02 11:31:56;;;;;;;5.22;1.40;;;;;;;20.97;46.10;101966.78;4919811;29;20459;-48
2022/07/02 11:34:26;;;;;;;6.82;1.95;;;;;;;21.04;48.21;101975.50;4941569;29;20139;-50
2022/07/02 11:36:54;;;;;;;4.82;1.60;;;;;;;21.03;46.25;101971.09;4926030;29;20574;-51
2022/07/02 11:39:23;;;;;;;2.35;1.10;;;;;;;21.00;45.53;101961.44;4936400;29;20044;-52